createdAt,value
2024-03-16T00:01:36.235Z,12.06
2024-03-16T00:04:44.668Z,12.05
2024-03-16T00:07:51.018Z,11.96
2024-03-16T00:10:56.732Z,11.99
2024-03-16T00:14:02.485Z,11.95
2024-03-16T00:17:08.118Z,11.95
2024-03-16T00:20:15.571Z,12.01
2024-03-16T00:23:21.363Z,11.94
2024-03-16T00:26:27.174Z,11.94
2024-03-16T00:29:32.222Z,11.94
2024-03-16T00:32:39.242Z,11.93
2024-03-16T00:35:44.843Z,11.95
2024-03-16T00:38:52.195Z,11.89
2024-03-16T00:42:00.062Z,11.86
2024-03-16T00:45:05.975Z,11.92
2024-03-16T00:48:11.200Z,11.88
2024-03-16T00:51:16.514Z,11.90
2024-03-16T00:54:21.787Z,11.93
2024-03-16T00:57:27.560Z,11.96
2024-03-16T01:00:33.178Z,11.92
2024-03-16T01:03:38.648Z,11.88
2024-03-16T01:06:45.443Z,11.91
2024-03-16T01:09:50.750Z,11.87
2024-03-16T01:12:56.399Z,11.76
2024-03-16T01:16:03.054Z,11.80
2024-03-16T01:19:08.705Z,11.76
2024-03-16T01:22:14.132Z,11.82
2024-03-16T01:25:20.194Z,11.77
2024-03-16T01:28:25.491Z,11.80
2024-03-16T01:31:31.490Z,11.86
2024-03-16T01:34:37.408Z,11.76
2024-03-16T01:37:42.609Z,11.71
2024-03-16T01:40:48.232Z,11.76
2024-03-16T01:43:54.207Z,11.70
2024-03-16T01:47:00.332Z,11.71
2024-03-16T01:50:06.523Z,11.69
2024-03-16T01:53:12.382Z,11.63
2024-03-16T01:56:17.903Z,11.71
2024-03-16T01:59:23.336Z,11.71
2024-03-16T02:02:42.776Z,11.70
2024-03-16T02:05:48.442Z,11.73
2024-03-16T02:08:54.402Z,11.72
2024-03-16T02:12:00.325Z,11.65
2024-03-16T02:15:06.543Z,11.67
2024-03-16T02:18:12.363Z,11.72
2024-03-16T02:21:17.622Z,11.65
2024-03-16T02:24:22.925Z,11.59
2024-03-16T02:27:28.693Z,11.60
2024-03-16T02:30:34.222Z,11.54
2024-03-16T02:33:39.829Z,11.61
2024-03-16T02:36:45.335Z,11.53
2024-03-16T02:39:50.818Z,11.54
2024-03-16T02:42:56.492Z,11.61
2024-03-16T02:46:02.318Z,11.64
2024-03-16T02:49:07.844Z,11.50
2024-03-16T02:52:14.428Z,11.49
2024-03-16T02:55:20.414Z,11.49
2024-03-16T02:58:25.545Z,11.56
2024-03-16T03:01:31.123Z,11.51
2024-03-16T03:04:36.731Z,11.52
2024-03-16T03:07:42.499Z,11.48
2024-03-16T03:10:48.523Z,11.37
2024-03-16T03:13:54.195Z,11.43
2024-03-16T03:17:00.208Z,11.33
2024-03-16T03:20:09.692Z,11.42
2024-03-16T03:23:15.144Z,11.40
2024-03-16T03:26:20.524Z,11.41
2024-03-16T03:29:26.717Z,11.39
2024-03-16T03:32:32.699Z,11.42
2024-03-16T03:35:41.149Z,11.38
2024-03-16T03:38:46.823Z,11.31
2024-03-16T03:41:52.533Z,11.32
2024-03-16T03:45:26.971Z,11.30
2024-03-16T03:48:37.996Z,11.29
2024-03-16T03:51:43.809Z,11.32
2024-03-16T03:54:49.399Z,11.34
2024-03-16T03:57:56.154Z,11.33
2024-03-16T04:01:02.347Z,11.28
2024-03-16T04:04:07.852Z,11.27
2024-03-16T04:07:13.358Z,11.20
2024-03-16T04:10:18.874Z,11.27
2024-03-16T04:13:24.516Z,11.30
2024-03-16T04:16:29.988Z,11.24
2024-03-16T04:19:35.827Z,11.24
2024-03-16T04:22:41.784Z,11.22
2024-03-16T04:25:49.992Z,11.28
2024-03-16T04:28:55.784Z,11.21
2024-03-16T04:32:01.645Z,11.18
2024-03-16T04:35:07.833Z,11.18
2024-03-16T04:38:14.681Z,11.22
2024-03-16T04:41:21.132Z,11.22
2024-03-16T04:44:26.308Z,11.26
2024-03-16T04:47:31.869Z,11.14
2024-03-16T04:50:38.037Z,11.06
2024-03-16T04:53:44.011Z,11.16
2024-03-16T04:56:49.505Z,11.09
2024-03-16T04:59:55.305Z,11.07
2024-03-16T05:03:00.861Z,11.10
2024-03-16T05:06:06.914Z,11.11
2024-03-16T05:09:12.553Z,11.06
2024-03-16T05:12:19.906Z,11.10
2024-03-16T05:15:25.865Z,11.19
2024-03-16T05:18:31.772Z,11.14
2024-03-16T05:21:37.566Z,11.10
2024-03-16T05:24:43.075Z,11.01
2024-03-16T05:27:48.757Z,11.06
2024-03-16T05:30:54.462Z,11.06
2024-03-16T05:34:00.582Z,11.13
2024-03-16T05:37:06.921Z,11.10
2024-03-16T05:40:12.595Z,11.16
2024-03-16T05:43:18.079Z,11.13
2024-03-16T05:46:23.438Z,11.15
2024-03-16T05:49:28.936Z,11.10
2024-03-16T05:52:36.752Z,11.21
2024-03-16T05:55:42.086Z,11.24
2024-03-16T05:58:48.028Z,11.34
2024-03-16T06:01:53.545Z,11.27
2024-03-16T06:04:58.905Z,11.31
2024-03-16T06:08:09.449Z,11.34
2024-03-16T06:11:15.579Z,11.35
2024-03-16T06:14:21.187Z,11.45
2024-03-16T06:17:26.301Z,11.52
2024-03-16T06:20:32.075Z,11.58
2024-03-16T06:23:37.476Z,11.70
2024-03-16T06:26:51.021Z,11.66
2024-03-16T06:29:58.874Z,11.75
2024-03-16T06:33:07.701Z,11.75
2024-03-16T06:36:13.761Z,11.78
2024-03-16T06:39:22.991Z,11.88
2024-03-16T06:42:29.738Z,11.65
2024-03-16T06:45:35.730Z,11.73
2024-03-16T06:48:41.178Z,11.67
2024-03-16T06:51:47.022Z,11.53
2024-03-16T06:54:55.605Z,11.71
2024-03-16T06:58:01.245Z,11.62
2024-03-16T07:01:07.389Z,11.76
2024-03-16T07:04:15.056Z,11.89
2024-03-16T07:07:20.302Z,11.92
2024-03-16T07:10:25.868Z,12.02
2024-03-16T07:13:31.323Z,12.16
2024-03-16T07:16:37.139Z,12.12
2024-03-16T07:19:42.680Z,12.27
2024-03-16T07:22:48.106Z,12.34
2024-03-16T07:25:53.464Z,12.63
2024-03-16T07:29:00.131Z,12.65
2024-03-16T07:32:07.168Z,12.67
2024-03-16T07:35:13.137Z,12.80
2024-03-16T07:38:19.001Z,12.81
2024-03-16T07:41:24.901Z,13.19
2024-03-16T07:44:31.549Z,13.30
2024-03-16T07:47:37.534Z,13.23
2024-03-16T07:50:42.655Z,13.46
2024-03-16T07:53:48.181Z,13.45
2024-03-16T07:56:53.655Z,13.72
2024-03-16T07:59:59.198Z,13.82
2024-03-16T08:03:05.363Z,13.69
2024-03-16T08:06:10.708Z,13.89
2024-03-16T08:09:16.066Z,13.99
2024-03-16T08:12:21.301Z,14.29
2024-03-16T08:15:27.343Z,14.56
2024-03-16T08:21:27.495Z,14.49
2024-03-16T08:24:34.032Z,14.89
2024-03-16T08:27:39.769Z,15.05
2024-03-16T08:30:45.050Z,15.27
2024-03-16T08:33:50.197Z,15.36
2024-03-16T08:36:55.535Z,15.27
2024-03-16T08:40:01.013Z,15.38
2024-03-16T08:43:09.112Z,15.25
2024-03-16T08:46:14.607Z,15.05
2024-03-16T08:49:20.194Z,14.89
2024-03-16T08:52:27.426Z,15.22
2024-03-16T08:55:33.013Z,15.24
2024-03-16T08:58:38.361Z,15.05
2024-03-16T09:01:44.257Z,15.50
2024-03-16T09:04:52.512Z,15.21
2024-03-16T09:07:58.050Z,15.18
2024-03-16T09:11:03.780Z,14.96
2024-03-16T09:14:09.396Z,14.41
2024-03-16T09:17:14.697Z,14.41
2024-03-16T09:20:20.902Z,14.34
2024-03-16T09:23:26.180Z,14.52
2024-03-16T09:26:31.563Z,14.70
2024-03-16T09:29:36.990Z,14.85
2024-03-16T09:32:42.053Z,14.37
2024-03-16T09:35:47.205Z,14.65
2024-03-16T09:38:53.245Z,14.72
2024-03-16T09:41:58.694Z,14.60
